createdAt,value
2022-08-03T00:02:15.593Z,98405.16
2022-08-03T00:04:42.723Z,98406.94
2022-08-03T00:07:09.737Z,98414.19
2022-08-03T00:09:36.912Z,98412.50
2022-08-03T00:12:04.526Z,98406.16
2022-08-03T00:14:31.783Z,98404.59
2022-08-03T00:16:58.963Z,98408.13
2022-08-03T00:19:26.115Z,98405.63
2022-08-03T00:21:53.174Z,98403.81
2022-08-03T00:24:20.579Z,98404.88
2022-08-03T00:26:47.580Z,98402.34
2022-08-03T00:29:14.666Z,98395.78
2022-08-03T00:31:51.493Z,98389.63
2022-08-03T00:34:24.261Z,98395.47
2022-08-03T00:37:03.803Z,98386.25
2022-08-03T00:39:30.881Z,98391.47
2022-08-03T00:41:57.925Z,98393.38
2022-08-03T00:44:24.929Z,98391.66
2022-08-03T00:46:51.912Z,98395.91
2022-08-03T00:49:18.985Z,98397.81
2022-08-03T00:51:47.384Z,98396.69
2022-08-03T00:54:16.881Z,98391.00
2022-08-03T00:57:00.278Z,98391.66
2022-08-03T00:59:28.032Z,98394.59
2022-08-03T01:01:55.152Z,98395.00
2022-08-03T01:04:22.204Z,98393.25
2022-08-03T01:07:03.877Z,98393.84
2022-08-03T01:09:54.106Z,98396.00
2022-08-03T01:13:04.786Z,98390.75
2022-08-03T01:15:49.109Z,98394.31
2022-08-03T01:18:35.098Z,98389.88
2022-08-03T01:21:10.569Z,98390.78
2022-08-03T01:24:31.949Z,98390.56
2022-08-03T01:27:31.756Z,98382.28
2022-08-03T01:30:09.561Z,98381.06
2022-08-03T01:33:00.679Z,98382.41
2022-08-03T01:35:43.597Z,98373.06
2022-08-03T01:38:18.638Z,98374.91
2022-08-03T01:40:47.132Z,98371.41
2022-08-03T01:43:55.232Z,98372.75
2022-08-03T01:46:06.933Z,98369.41
2022-08-03T01:48:36.801Z,98372.09
2022-08-03T01:51:04.840Z,98374.78
2022-08-03T01:53:35.194Z,98374.66
2022-08-03T01:56:04.046Z,98381.03
2022-08-03T01:58:34.341Z,98368.31
2022-08-03T02:01:04.044Z,98366.91
2022-08-03T02:03:34.473Z,98363.25
2022-08-03T02:07:00.438Z,98364.94
2022-08-03T02:08:52.755Z,98371.91
2022-08-03T02:11:20.173Z,98364.13
2022-08-03T02:13:49.803Z,98366.75
2022-08-03T02:16:18.337Z,98362.84
2022-08-03T02:18:47.510Z,98360.41
2022-08-03T02:21:55.910Z,98357.69
2022-08-03T02:24:05.025Z,98354.72
2022-08-03T02:26:35.028Z,98361.59
2022-08-03T02:29:14.769Z,98354.28
2022-08-03T02:31:43.874Z,98357.06
2022-08-03T02:34:14.875Z,98358.25
2022-08-03T02:36:46.101Z,98355.72
2022-08-03T02:39:20.994Z,98351.69
2022-08-03T02:42:02.266Z,98360.47
2022-08-03T02:44:33.276Z,98353.56
2022-08-03T02:47:10.156Z,98350.16
2022-08-03T02:49:50.452Z,98356.63
2022-08-03T02:52:21.313Z,98360.09
2022-08-03T02:54:52.840Z,98363.72
2022-08-03T02:57:21.882Z,98359.97
2022-08-03T02:59:51.807Z,98357.94
2022-08-03T03:02:20.106Z,98358.41
2022-08-03T03:05:56.364Z,98355.81
2022-08-03T03:07:52.232Z,98358.91
2022-08-03T03:10:24.057Z,98358.34
2022-08-03T03:12:55.658Z,98358.41
2022-08-03T03:15:24.839Z,98357.63
2022-08-03T03:17:53.664Z,98359.69
2022-08-03T03:20:29.987Z,98352.59
2022-08-03T03:23:00.829Z,98355.59
2022-08-03T03:25:32.864Z,98358.69
2022-08-03T03:28:02.080Z,98362.97
2022-08-03T03:30:30.212Z,98358.47
2022-08-03T03:32:58.933Z,98359.06
2022-08-03T03:35:27.937Z,98360.75
2022-08-03T03:37:55.236Z,98355.72
2022-08-03T03:40:23.000Z,98357.28
2022-08-03T03:42:51.114Z,98353.06
2022-08-03T03:45:18.938Z,98356.81
2022-08-03T03:47:47.381Z,98352.91
2022-08-03T03:50:18.348Z,98349.31
2022-08-03T03:52:46.429Z,98360.97
2022-08-03T03:55:17.855Z,98359.75
2022-08-03T03:57:46.131Z,98353.53
2022-08-03T04:00:15.532Z,98359.69
2022-08-03T04:02:42.668Z,98357.25
2022-08-03T04:05:28.651Z,98358.66
2022-08-03T04:08:20.718Z,98362.75
2022-08-03T04:11:01.788Z,98363.78
2022-08-03T04:13:37.865Z,98361.88
2022-08-03T04:16:08.029Z,98356.28
2022-08-03T04:18:37.231Z,98363.03
2022-08-03T04:21:10.260Z,98365.59
2022-08-03T04:23:41.954Z,98363.94
2022-08-03T04:26:13.903Z,98363.63
2022-08-03T04:28:46.062Z,98363.41
2022-08-03T04:31:15.050Z,98361.72
2022-08-03T04:33:44.865Z,98364.38
2022-08-03T04:36:17.263Z,98366.59
2022-08-03T04:39:07.446Z,98369.50
2022-08-03T04:42:04.384Z,98366.16
2022-08-03T04:44:28.389Z,98376.22
2022-08-03T04:46:57.176Z,98373.47
2022-08-03T04:49:25.378Z,98378.03
2022-08-03T04:51:53.260Z,98374.66
2022-08-03T04:54:20.270Z,98376.59
2022-08-03T04:56:47.913Z,98379.78
2022-08-03T04:59:14.995Z,98377.91
2022-08-03T05:01:42.310Z,98379.78
2022-08-03T05:04:09.986Z,98384.72
2022-08-03T05:06:37.130Z,98381.47
2022-08-03T05:09:14.951Z,98376.38
2022-08-03T05:12:01.946Z,98374.09
2022-08-03T05:14:28.888Z,98376.94
2022-08-03T05:16:55.842Z,98369.66
2022-08-03T05:19:22.846Z,98374.91
2022-08-03T05:21:52.354Z,98375.03
2022-08-03T05:24:19.762Z,98381.28
2022-08-03T05:26:49.325Z,98366.72
2022-08-03T05:29:16.308Z,98369.91
2022-08-03T05:31:43.723Z,98369.69
2022-08-03T05:34:10.754Z,98370.00
2022-08-03T05:36:37.800Z,98365.41
2022-08-03T05:39:04.810Z,98365.50
2022-08-03T05:41:36.848Z,98359.53
2022-08-03T05:44:04.977Z,98359.56
2022-08-03T05:46:32.164Z,98363.75
2022-08-03T05:48:59.389Z,98361.78
2022-08-03T05:51:26.544Z,98361.13
2022-08-03T05:53:53.487Z,98364.19
2022-08-03T05:56:26.301Z,98357.19
2022-08-03T05:58:53.626Z,98356.44
2022-08-03T06:01:22.003Z,98354.31
2022-08-03T06:03:50.188Z,98357.28
2022-08-03T06:06:17.642Z,98356.25
2022-08-03T06:08:45.774Z,98358.78
2022-08-03T06:11:13.092Z,98350.59
2022-08-03T06:13:40.415Z,98355.38
2022-08-03T06:16:07.467Z,98352.53
2022-08-03T06:18:35.306Z,98355.88
2022-08-03T06:21:14.378Z,98349.00
2022-08-03T06:23:55.227Z,98353.00
2022-08-03T06:26:25.055Z,98353.25
2022-08-03T06:28:54.246Z,98356.44
2022-08-03T06:31:32.976Z,98352.66
2022-08-03T06:34:35.135Z,98347.19
2022-08-03T06:36:52.186Z,98355.94
2022-08-03T06:39:20.352Z,98356.25
2022-08-03T06:41:47.423Z,98355.44
2022-08-03T06:44:14.505Z,98354.53
2022-08-03T06:46:42.321Z,98345.50
2022-08-03T06:49:09.420Z,98349.28
2022-08-03T06:52:03.660Z,98353.00
2022-08-03T06:54:24.413Z,98352.09
2022-08-03T06:56:51.603Z,98353.59
2022-08-03T07:00:10.939Z,98349.00
2022-08-03T07:02:06.110Z,98349.88
2022-08-03T07:04:33.383Z,98355.63
2022-08-03T07:07:00.391Z,98360.78
2022-08-03T07:09:28.089Z,98353.84
2022-08-03T07:11:55.451Z,98357.94
2022-08-03T07:14:22.786Z,98360.81
2022-08-03T07:16:49.763Z,98360.91
2022-08-03T07:19:17.268Z,98351.06
2022-08-03T07:21:45.417Z,98354.09
2022-08-03T07:24:12.472Z,98354.34
2022-08-03T07:26:39.463Z,98352.72
2022-08-03T07:29:08.736Z,98345.13
2022-08-03T07:31:42.948Z,98348.97
2022-08-03T07:34:10.010Z,98337.31
2022-08-03T07:36:37.315Z,98335.88
2022-08-03T07:39:16.667Z,98330.03
2022-08-03T07:41:45.899Z,98335.13
2022-08-03T07:44:13.567Z,98340.81
2022-08-03T07:46:40.650Z,98337.06
2022-08-03T07:49:07.709Z,98328.72
2022-08-03T07:51:35.052Z,98339.16
2022-08-03T07:54:02.156Z,98329.50
2022-08-03T07:56:29.798Z,98325.13
2022-08-03T07:58:57.621Z,98323.06
2022-08-03T08:01:24.809Z,98328.00
2022-08-03T08:03:53.441Z,98323.75
2022-08-03T08:06:21.906Z,98320.53
2022-08-03T08:08:49.314Z,98312.56
2022-08-03T08:11:16.389Z,98326.41
2022-08-03T08:13:43.316Z,98326.50
2022-08-03T08:16:10.317Z,98328.09
2022-08-03T08:18:37.268Z,98317.09
2022-08-03T08:21:04.471Z,98314.19
2022-08-03T08:23:41.899Z,98317.72
2022-08-03T08:26:10.740Z,98325.09
2022-08-03T08:28:37.862Z,98322.97
2022-08-03T08:31:04.963Z,98326.44
2022-08-03T08:34:01.480Z,98318.25
2022-08-03T08:36:21.704Z,98321.19
2022-08-03T08:38:48.802Z,98311.38
2022-08-03T08:41:16.466Z,98316.06
2022-08-03T08:43:44.058Z,98320.31
2022-08-03T08:46:23.629Z,98318.59
2022-08-03T08:48:53.164Z,98322.00
2022-08-03T08:51:22.428Z,98319.38
2022-08-03T08:53:53.884Z,98313.56
2022-08-03T08:56:25.386Z,98312.44
2022-08-03T08:58:59.687Z,98308.06
2022-08-03T09:01:27.646Z,98306.56
2022-08-03T09:03:55.575Z,98310.47
2022-08-03T09:06:23.851Z,98313.03
2022-08-03T09:08:51.329Z,98308.22
2022-08-03T09:11:51.413Z,98309.97
2022-08-03T09:14:11.160Z,98304.94
2022-08-03T09:17:00.942Z,98304.44
2022-08-03T09:19:30.187Z,98303.84
2022-08-03T09:22:18.705Z,98304.28
2022-08-03T09:25:22.003Z,98308.59
2022-08-03T09:27:48.089Z,98298.63
2022-08-03T09:30:33.460Z,98306.00
2022-08-03T09:33:08.612Z,98294.34
2022-08-03T09:35:55.365Z,98303.25
2022-08-03T09:38:28.881Z,98297.38
2022-08-03T09:41:00.238Z,98293.88
2022-08-03T09:43:28.866Z,98299.34
2022-08-03T09:46:07.631Z,98291.13
2022-08-03T09:48:36.761Z,98293.00
2022-08-03T09:51:13.593Z,98288.59
2022-08-03T09:53:58.510Z,98288.81
2022-08-03T09:56:47.507Z,98283.34
2022-08-03T09:59:24.654Z,98282.38
2022-08-03T10:01:54.308Z,98289.03
2022-08-03T10:04:22.882Z,98279.53
2022-08-03T10:07:09.291Z,98276.91
2022-08-03T10:09:37.629Z,98278.53
2022-08-03T10:12:13.814Z,98275.16
2022-08-03T10:14:43.909Z,98266.94
2022-08-03T10:17:11.325Z,98269.34
2022-08-03T10:19:38.624Z,98268.03
2022-08-03T10:22:14.456Z,98268.44
2022-08-03T10:24:54.346Z,98268.69
2022-08-03T10:27:24.140Z,98267.63
2022-08-03T10:29:54.492Z,98270.00
2022-08-03T10:32:29.070Z,98264.34
2022-08-03T10:35:19.651Z,98252.31
2022-08-03T10:38:01.992Z,98247.50
2022-08-03T10:43:37.224Z,98254.34
2022-08-03T10:46:07.330Z,98240.41
2022-08-03T10:48:35.869Z,98239.59
2022-08-03T10:51:03.458Z,98240.13
2022-08-03T10:53:44.130Z,98233.22
2022-08-03T10:56:52.267Z,98223.22
2022-08-03T10:59:38.612Z,98224.59
2022-08-03T11:02:08.342Z,98219.75
2022-08-03T11:04:35.697Z,98218.59
2022-08-03T11:07:18.479Z,98215.78
2022-08-03T11:09:48.665Z,98219.91
2022-08-03T11:12:30.661Z,98222.97
2022-08-03T11:15:01.958Z,98216.09
2022-08-03T11:17:29.647Z,98216.34
2022-08-03T11:19:58.474Z,98213.31
2022-08-03T11:22:29.018Z,98220.38
2022-08-03T11:24:57.582Z,98225.56
2022-08-03T11:27:32.934Z,98211.97
2022-08-03T11:30:08.687Z,98213.28
2022-08-03T11:32:38.589Z,98216.16
2022-08-03T11:35:13.579Z,98203.94
2022-08-03T11:38:02.018Z,98206.44
2022-08-03T11:40:52.828Z,98198.91
2022-08-03T11:43:23.666Z,98204.06
2022-08-03T11:46:12.498Z,98190.97
2022-08-03T11:48:45.322Z,98204.06
2022-08-03T11:51:26.579Z,98206.41
2022-08-03T11:53:55.679Z,98200.75
2022-08-03T11:56:22.841Z,98196.81
2022-08-03T11:59:16.469Z,98199.72
2022-08-03T12:01:41.773Z,98199.63
2022-08-03T12:04:10.359Z,98189.97
2022-08-03T12:06:55.909Z,98187.06
2022-08-03T12:09:23.300Z,98172.22
2022-08-03T12:12:00.335Z,98179.84
2022-08-03T12:14:50.240Z,98182.56
2022-08-03T12:17:18.040Z,98183.00
2022-08-03T12:19:45.911Z,98183.94
2022-08-03T12:22:13.660Z,98177.59
2022-08-03T12:24:46.758Z,98173.94
2022-08-03T12:27:29.245Z,98172.81
2022-08-03T12:29:59.298Z,98169.66
2022-08-03T12:32:28.562Z,98170.63
2022-08-03T12:35:00.705Z,98161.53
2022-08-03T12:37:28.846Z,98165.00
2022-08-03T12:40:09.501Z,98165.28
2022-08-03T12:42:39.721Z,98164.06
2022-08-03T12:45:20.879Z,98156.69
2022-08-03T12:48:00.069Z,98167.19
2022-08-03T12:50:33.333Z,98152.63
2022-08-03T12:53:02.575Z,98160.56
2022-08-03T12:55:56.377Z,98161.28
2022-08-03T12:58:34.002Z,98160.81
2022-08-03T13:01:09.818Z,98151.75
2022-08-03T13:03:50.408Z,98146.31
2022-08-03T13:06:28.603Z,98150.75
2022-08-03T13:09:07.103Z,98152.81
2022-08-03T13:11:52.631Z,98148.13
2022-08-03T13:14:23.804Z,98160.97
2022-08-03T13:16:50.967Z,98152.44
2022-08-03T13:19:17.978Z,98149.59
2022-08-03T13:21:53.863Z,98145.91
2022-08-03T13:24:32.720Z,98142.47
2022-08-03T13:27:58.889Z,98144.22
2022-08-03T13:29:48.085Z,98144.13
2022-08-03T13:32:15.079Z,98142.50
2022-08-03T13:34:42.213Z,98139.06
2022-08-03T13:37:20.032Z,98138.91
2022-08-03T13:39:58.433Z,98138.38
2022-08-03T13:42:32.806Z,98141.59
2022-08-03T13:45:01.441Z,98138.63
2022-08-03T13:47:28.822Z,98124.72
2022-08-03T13:50:01.089Z,98131.13
2022-08-03T13:52:36.418Z,98128.66
2022-08-03T13:55:06.512Z,98123.38
2022-08-03T13:58:06.729Z,98126.28
2022-08-03T14:00:28.937Z,98124.91
2022-08-03T14:03:12.520Z,98129.31
2022-08-03T14:05:41.593Z,98119.25
2022-08-03T14:08:09.081Z,98119.28
2022-08-03T14:10:42.317Z,98118.13
2022-08-03T14:13:12.408Z,98118.53
2022-08-03T14:15:39.458Z,98110.25
2022-08-03T14:18:15.315Z,98112.84
2022-08-03T14:20:50.048Z,98114.22
2022-08-03T14:23:19.078Z,98110.31
2022-08-03T14:25:51.672Z,98116.47
2022-08-03T14:28:21.069Z,98111.03
2022-08-03T14:30:48.722Z,98105.44
2022-08-03T14:33:16.599Z,98099.94
2022-08-03T14:35:44.124Z,98107.75
2022-08-03T14:38:11.546Z,98109.75
2022-08-03T14:40:38.917Z,98101.94
2022-08-03T14:43:06.407Z,98097.25
2022-08-03T14:45:34.306Z,98093.63
2022-08-03T14:50:28.837Z,98091.72
2022-08-03T14:50:51.732Z,98100.59
2022-08-03T14:53:19.990Z,98096.50
2022-08-03T14:55:50.917Z,98103.91
2022-08-03T14:58:20.972Z,98088.81
2022-08-03T15:00:49.965Z,98086.00
2022-08-03T15:03:20.518Z,98079.16
2022-08-03T15:05:48.278Z,98092.34
2022-08-03T15:08:15.865Z,98078.06
2022-08-03T15:10:44.117Z,98080.16
2022-08-03T15:13:13.382Z,98076.63
2022-08-03T15:15:41.261Z,98085.78
2022-08-03T15:18:08.874Z,98083.59
2022-08-03T15:20:45.315Z,98070.41
2022-08-03T15:23:14.591Z,98075.00
2022-08-03T15:26:28.329Z,98068.19
2022-08-03T15:28:30.670Z,98069.88
2022-08-03T15:30:58.144Z,98060.53
2022-08-03T15:33:25.569Z,98066.00
2022-08-03T15:35:53.637Z,98065.63
2022-08-03T15:38:26.220Z,98066.97
2022-08-03T15:40:54.701Z,98064.91
2022-08-03T15:43:23.958Z,98059.66
2022-08-03T15:46:12.730Z,98059.06
2022-08-03T15:48:39.417Z,98063.88
2022-08-03T15:51:07.590Z,98063.00
2022-08-03T15:53:35.185Z,98064.09
2022-08-03T15:56:08.017Z,98057.84
2022-08-03T15:59:10.431Z,98062.47
2022-08-03T16:01:27.537Z,98054.53
2022-08-03T16:03:55.025Z,98047.63
2022-08-03T16:06:34.918Z,98049.56
2022-08-03T16:09:05.832Z,98038.34
2022-08-03T16:11:51.841Z,98049.59
2022-08-03T16:14:32.110Z,98041.31
2022-08-03T16:17:00.866Z,98040.22
2022-08-03T16:19:28.934Z,98044.41
2022-08-03T16:21:56.397Z,98040.88
2022-08-03T16:24:28.037Z,98037.06
2022-08-03T16:26:56.385Z,98043.88
2022-08-03T16:29:24.149Z,98042.56
2022-08-03T16:31:52.566Z,98028.22
2022-08-03T16:34:21.007Z,98026.31
2022-08-03T16:36:48.465Z,98033.47
2022-08-03T16:39:16.034Z,98037.59
2022-08-03T16:41:53.557Z,98030.22
2022-08-03T16:44:29.990Z,98023.91
2022-08-03T16:46:58.115Z,98032.38
2022-08-03T16:49:53.638Z,98028.03
2022-08-03T16:52:13.292Z,98029.16
2022-08-03T16:54:40.931Z,98020.34
2022-08-03T16:57:12.470Z,98027.75
2022-08-03T16:59:39.977Z,98023.94
2022-08-03T17:02:10.535Z,98023.66
2022-08-03T17:04:40.203Z,98010.25
2022-08-03T17:07:08.928Z,98020.38
2022-08-03T17:09:38.801Z,98017.09
2022-08-03T17:12:07.654Z,98025.84
2022-08-03T17:14:38.900Z,98023.63
2022-08-03T17:17:16.137Z,98020.91
2022-08-03T17:19:47.145Z,98023.38
2022-08-03T17:22:20.771Z,98023.09
2022-08-03T17:24:53.785Z,98027.75
2022-08-03T17:28:43.098Z,98026.94
2022-08-03T17:30:16.749Z,98030.78
2022-08-03T17:32:52.489Z,98029.69
2022-08-03T17:35:34.631Z,98032.97
2022-08-03T17:38:10.429Z,98028.31
2022-08-03T17:40:50.314Z,98030.50
2022-08-03T17:44:15.686Z,98027.75
2022-08-03T17:46:10.943Z,98029.41
2022-08-03T17:48:41.327Z,98037.34
2022-08-03T17:51:20.403Z,98037.03
2022-08-03T17:54:01.286Z,98043.63
2022-08-03T17:56:46.618Z,98044.13
2022-08-03T18:02:55.238Z,98048.19
2022-08-03T18:05:25.385Z,98052.84
2022-08-03T18:08:32.925Z,98057.72
2022-08-03T18:11:09.759Z,98054.41
2022-08-03T18:13:57.641Z,98054.41
2022-08-03T18:16:37.689Z,98058.19
2022-08-03T18:19:09.384Z,98070.22
2022-08-03T18:22:02.545Z,98066.56
2022-08-03T18:24:30.321Z,98068.19
2022-08-03T18:26:57.955Z,98061.53
2022-08-03T18:29:26.549Z,98067.44
2022-08-03T18:32:03.071Z,98067.63
2022-08-03T18:34:34.273Z,98065.00
2022-08-03T18:37:04.394Z,98067.66
2022-08-03T18:39:49.346Z,98065.69
2022-08-03T18:42:25.832Z,98070.47
2022-08-03T18:44:56.459Z,98069.72
2022-08-03T18:47:50.531Z,98069.53
2022-08-03T18:50:37.097Z,98069.09
2022-08-03T18:53:19.597Z,98062.56
2022-08-03T18:56:08.236Z,98064.09
2022-08-03T18:59:02.468Z,98070.72
2022-08-03T19:01:59.781Z,98070.31
2022-08-03T19:04:37.255Z,98073.19
2022-08-03T19:07:11.087Z,98072.28
2022-08-03T19:09:47.672Z,98075.44
2022-08-03T19:12:32.331Z,98078.00
2022-08-03T19:15:13.369Z,98080.75
2022-08-03T19:17:52.661Z,98087.66
2022-08-03T19:20:30.688Z,98083.44
2022-08-03T19:22:59.870Z,98094.22
2022-08-03T19:25:34.349Z,98096.66
2022-08-03T19:28:06.270Z,98096.66
2022-08-03T19:30:40.147Z,98092.22
2022-08-03T19:33:11.103Z,98093.84
2022-08-03T19:35:51.538Z,98096.81
2022-08-03T19:38:28.203Z,98099.13
2022-08-03T19:41:02.376Z,98104.97
2022-08-03T19:43:53.275Z,98102.03
2022-08-03T19:46:22.682Z,98099.16
2022-08-03T19:49:14.469Z,98103.94
2022-08-03T19:51:59.428Z,98103.19
2022-08-03T19:54:54.049Z,98099.50
2022-08-03T19:57:25.485Z,98098.44
2022-08-03T19:59:56.104Z,98097.31
2022-08-03T20:02:27.380Z,98102.13
2022-08-03T20:04:59.787Z,98102.31
2022-08-03T20:07:30.826Z,98096.34
2022-08-03T20:09:59.569Z,98103.19
2022-08-03T20:12:33.158Z,98110.72
2022-08-03T20:15:04.654Z,98104.84
2022-08-03T20:17:56.592Z,98098.16
2022-08-03T20:20:34.671Z,98103.72
2022-08-03T20:23:13.976Z,98106.22
2022-08-03T20:25:58.241Z,98111.19
2022-08-03T20:28:57.115Z,98108.19
2022-08-03T20:31:32.510Z,98110.28
2022-08-03T20:34:04.629Z,98107.88
2022-08-03T20:36:31.623Z,98107.06
2022-08-03T20:38:59.690Z,98109.97
2022-08-03T20:41:26.800Z,98111.31
2022-08-03T20:43:53.992Z,98106.56
2022-08-03T20:46:31.840Z,98119.34
2022-08-03T20:49:09.015Z,98114.44
2022-08-03T20:51:52.860Z,98113.63
2022-08-03T20:54:29.526Z,98121.94
2022-08-03T20:57:03.795Z,98115.97
2022-08-03T20:59:50.179Z,98120.31
2022-08-03T21:02:29.705Z,98124.91
2022-08-03T21:05:03.726Z,98115.34
2022-08-03T21:08:04.238Z,98118.69
2022-08-03T21:10:31.155Z,98120.56
2022-08-03T21:13:04.599Z,98050.13
2022-08-03T21:13:25.847Z,98114.19
2022-08-03T21:16:06.983Z,98113.34
2022-08-03T21:18:50.299Z,98119.56
2022-08-03T21:21:21.429Z,98118.75
2022-08-03T21:23:55.874Z,98122.69
2022-08-03T21:26:25.626Z,98120.81
2022-08-03T21:28:56.371Z,98125.16
2022-08-03T21:31:26.487Z,98120.19
2022-08-03T21:34:00.907Z,98118.13
2022-08-03T21:36:31.466Z,98111.69
2022-08-03T21:38:59.533Z,98116.25
2022-08-03T21:41:31.857Z,98115.41
2022-08-03T21:44:00.586Z,98120.94
2022-08-03T21:46:35.159Z,98112.41
2022-08-03T21:49:52.149Z,98118.81
2022-08-03T21:51:59.556Z,98119.47
2022-08-03T21:54:38.697Z,98117.59
2022-08-03T21:57:14.273Z,98120.72
2022-08-03T21:59:52.292Z,98117.41
2022-08-03T22:02:24.545Z,98125.91
2022-08-03T22:04:55.365Z,98124.41
2022-08-03T22:07:26.161Z,98126.88
2022-08-03T22:09:58.450Z,98126.63
2022-08-03T22:12:28.674Z,98115.97
2022-08-03T22:15:00.957Z,98118.88
2022-08-03T22:17:56.334Z,98122.25
2022-08-03T22:20:22.431Z,98112.50
2022-08-03T22:22:56.103Z,98124.56
2022-08-03T22:25:31.484Z,98128.41
2022-08-03T22:28:05.089Z,98128.75
2022-08-03T22:30:33.136Z,98128.81
2022-08-03T22:33:04.785Z,98131.69
2022-08-03T22:35:46.436Z,98126.56
2022-08-03T22:38:17.676Z,98128.13
2022-08-03T22:40:48.714Z,98124.94
2022-08-03T22:43:16.428Z,98132.28
2022-08-03T22:46:11.222Z,98134.47
2022-08-03T22:48:35.425Z,98142.28
2022-08-03T22:51:08.871Z,98139.84
2022-08-03T22:53:36.571Z,98137.19
2022-08-03T22:56:04.197Z,98136.19
2022-08-03T22:58:31.232Z,98130.09
2022-08-03T23:01:06.462Z,98135.72
2022-08-03T23:03:59.831Z,98136.38
2022-08-03T23:06:26.656Z,98142.84
2022-08-03T23:08:54.225Z,98137.91
2022-08-03T23:11:23.975Z,98141.56
2022-08-03T23:13:54.422Z,98138.88
2022-08-03T23:16:28.998Z,98136.13
2022-08-03T23:18:59.633Z,98137.91
2022-08-03T23:21:52.872Z,98138.63
2022-08-03T23:24:26.134Z,98133.31
2022-08-03T23:26:58.080Z,98136.25
2022-08-03T23:29:26.312Z,98137.97
2022-08-03T23:31:54.914Z,98137.22
2022-08-03T23:34:42.414Z,98140.81
2022-08-03T23:37:11.521Z,98139.34
2022-08-03T23:39:40.232Z,98137.81
2022-08-03T23:42:07.512Z,98136.59
2022-08-03T23:44:37.507Z,98139.97
2022-08-03T23:47:04.582Z,98144.03
2022-08-03T23:49:31.592Z,98143.00
2022-08-03T23:52:34.731Z,98145.84
2022-08-03T23:55:24.010Z,98159.97
2022-08-03T23:58:18.935Z,98154.25
